Time;durP1;ratioP1;P1;durP2;ratioP2;P2;SDS_P1;SDS_P2;PMS_P1;PMS_P2;Temp;Humidity;BMP_temperature;BMP_pressure;BME280_temperature;BME280_humidity;BME280_pressure;Samples;Min_cycle;Max_cycle;Signal;HPM_P1;HPM_P2
2023/01/31 00:01:17;;;;;;;14.00;3.37;;;;;;;;;;4957957;28;20232;-88
2023/01/31 00:03:42;;;;;;;9.60;2.70;;;;;;;;;;5000427;28;20656;-87
2023/01/31 00:06:09;;;;;;;15.30;3.23;;;;;;;;;;4968139;28;20221;-88
2023/01/31 00:08:35;;;;;;;14.63;3.30;;;;;;;;;;4997083;28;20280;-89
2023/01/31 00:11:01;;;;;;;11.90;3.57;;;;;;;;;;4963257;28;20581;-89
2023/01/31 00:13:26;;;;;;;11.73;2.90;;;;;;;;;;4970384;28;20280;-89
2023/01/31 00:15:56;;;;;;;10.47;2.57;;;;;;;;;;4972635;28;20225;-90
2023/01/31 00:18:21;;;;;;;9.27;2.90;;;;;;;;;;4993759;28;20347;-90
2023/01/31 00:20:47;;;;;;;10.50;3.23;;;;;;;;;;5000867;28;20250;-89
2023/01/31 00:23:15;;;;;;;9.47;2.90;;;;;;;;;;4983610;28;20217;-89
2023/01/31 00:25:40;;;;;;;14.50;3.30;;;;;;;;;;4963423;28;20237;-88
2023/01/31 00:28:06;;;;;;;10.47;3.33;;;;;;;;;;4978255;28;20259;-87
2023/01/31 00:30:33;;;;;;;15.00;3.33;;;;;;;;;;4985464;28;20293;-92
2023/01/31 00:32:59;;;;;;;14.60;3.70;;;;;;;;;;4952417;28;20265;-88
2023/01/31 00:35:24;;;;;;;10.03;3.00;;;;;;;;;;4978157;28;20707;-89
2023/01/31 00:37:50;;;;;;;9.13;2.73;;;;;;;;;;4975075;28;20229;-87
2023/01/31 00:40:15;;;;;;;9.83;2.70;;;;;;;;;;4969138;28;20221;-89
2023/01/31 00:42:44;;;;;;;9.50;3.17;;;;;;;;;;4986196;28;20225;-89
2023/01/31 00:45:10;;;;;;;9.97;3.17;;;;;;;;;;4979172;28;20226;-87
2023/01/31 00:47:38;;;;;;;9.47;2.83;;;;;;;;;;4986563;28;20247;-88
2023/01/31 00:50:04;;;;;;;11.60;3.13;;;;;;;;;;4971521;28;20233;-88
2023/01/31 00:52:30;;;;;;;9.57;2.70;;;;;;;;;;4996077;28;20232;-88
2023/01/31 00:54:55;;;;;;;8.97;2.77;;;;;;;;;;4987462;28;20231;-89
2023/01/31 00:57:25;;;;;;;6.57;2.47;;;;;;;;;;4983285;28;20623;-88
2023/01/31 00:59:51;;;;;;;8.30;2.43;;;;;;;;;;4982511;28;20230;-88
2023/01/31 01:02:18;;;;;;;6.83;2.13;;;;;;;;;;5004805;28;20216;-90
2023/01/31 01:04:48;;;;;;;11.63;2.67;;;;;;;;;;4962711;28;20241;-87
2023/01/31 01:07:13;;;;;;;10.63;2.43;;;;;;;;;;4963094;28;20237;-89
2023/01/31 01:09:41;;;;;;;7.60;2.50;;;;;;;;;;4987566;28;20259;-88
2023/01/31 01:12:08;;;;;;;8.77;2.60;;;;;;;;;;4982307;28;20244;-88
2023/01/31 01:14:37;;;;;;;7.77;2.20;;;;;;;;;;4955280;28;20226;-88
2023/01/31 01:17:02;;;;;;;10.47;2.33;;;;;;;;;;4982148;28;20217;-89
2023/01/31 01:19:28;;;;;;;8.50;2.53;;;;;;;;;;4973680;28;20255;-87
2023/01/31 01:21:54;;;;;;;9.20;2.50;;;;;;;;;;4984431;28;20256;-89
2023/01/31 01:24:20;;;;;;;8.07;2.37;;;;;;;;;;4995034;28;20252;-88
2023/01/31 01:26:48;;;;;;;10.73;3.03;;;;;;;;;;4952964;28;20225;-86
2023/01/31 01:29:15;;;;;;;9.57;2.60;;;;;;;;;;4995143;28;20229;-88
2023/01/31 01:31:45;;;;;;;6.90;2.33;;;;;;;;;;4976030;28;20225;-88
2023/01/31 01:34:12;;;;;;;7.10;2.17;;;;;;;;;;4963635;28;20225;-88
2023/01/31 01:36:40;;;;;;;9.53;2.30;;;;;;;;;;4987691;28;20202;-91
2023/01/31 01:39:10;;;;;;;6.57;2.30;;;;;;;;;;4943232;28;20304;-89
2023/01/31 01:41:36;;;;;;;6.87;2.37;;;;;;;;;;4958628;28;20233;-87
2023/01/31 01:44:03;;;;;;;11.67;3.10;;;;;;;;;;4976042;28;20244;-87
2023/01/31 01:46:40;;;;;;;8.60;2.33;;;;;;;;;;4996784;28;20226;-85
2023/01/31 01:49:26;;;;;;;7.37;2.40;;;;;;;;;;4971636;28;20213;-89
2023/01/31 01:51:52;;;;;;;7.93;2.33;;;;;;;;;;4998717;28;20756;-88
2023/01/31 01:54:21;;;;;;;7.50;2.13;;;;;;;;;;5019276;28;20212;-89
2023/01/31 01:56:48;;;;;;;8.13;2.33;;;;;;;;;;4940622;28;20710;-88
2023/01/31 01:59:22;;;;;;;6.00;2.60;;;;;;;;;;4980506;28;20227;-88
2023/01/31 02:01:48;;;;;;;8.47;2.70;;;;;;;;;;4986020;28;20232;-89
2023/01/31 02:04:18;;;;;;;10.17;3.07;;;;;;;;;;4991031;28;20220;-89
2023/01/31 02:06:44;;;;;;;10.17;2.83;;;;;;;;;;4969952;28;20234;-88
2023/01/31 02:09:31;;;;;;;9.03;2.77;;;;;;;;;;4964251;28;20228;-88
2023/01/31 02:11:58;;;;;;;5.57;2.30;;;;;;;;;;4934728;28;20228;-93
2023/01/31 02:14:26;;;;;;;8.13;2.37;;;;;;;;;;5012070;28;20235;-94
2023/01/31 02:16:52;;;;;;;9.23;2.63;;;;;;;;;;4967936;28;20237;-92
2023/01/31 02:19:28;;;;;;;9.37;2.93;;;;;;;;;;4996433;28;20193;-91
2023/01/31 02:22:12;;;;;;;14.80;3.17;;;;;;;;;;5020389;28;20460;-91
2023/01/31 02:24:57;;;;;;;12.97;2.83;;;;;;;;;;5031414;28;20214;-94
2023/01/31 02:27:33;;;;;;;7.50;2.37;;;;;;;;;;4995279;28;20237;-93
2023/01/31 02:30:22;;;;;;;12.77;3.20;;;;;;;;;;4992043;28;20213;-92
2023/01/31 02:33:01;;;;;;;10.33;2.60;;;;;;;;;;5024831;28;20236;-92
2023/01/31 02:35:54;;;;;;;5.87;2.50;;;;;;;;;;4977022;28;20221;-91
2023/01/31 02:38:40;;;;;;;14.43;2.50;;;;;;;;;;4998609;28;20285;-92
2023/01/31 02:41:44;;;;;;;8.23;2.50;;;;;;;;;;5006021;28;20219;-89
2023/01/31 02:47:11;;;;;;;9.93;2.60;;;;;;;;;;5020101;28;20273;-87
2023/01/31 02:49:48;;;;;;;9.80;2.40;;;;;;;;;;4990918;28;20229;-89
2023/01/31 02:52:28;;;;;;;11.77;2.83;;;;;;;;;;5008992;28;20233;-88
2023/01/31 02:58:04;;;;;;;6.93;2.40;;;;;;;;;;5004370;28;20241;-89
2023/01/31 03:00:31;;;;;;;15.17;2.47;;;;;;;;;;4966034;28;20297;-88
2023/01/31 03:02:59;;;;;;;7.77;2.70;;;;;;;;;;4959782;28;20275;-89
2023/01/31 03:05:25;;;;;;;11.50;2.43;;;;;;;;;;4988477;28;20221;-89
2023/01/31 03:07:59;;;;;;;6.80;2.37;;;;;;;;;;4946845;28;20770;-87
2023/01/31 03:10:49;;;;;;;14.80;2.90;;;;;;;;;;4980981;28;20225;-89
2023/01/31 03:13:19;;;;;;;8.83;2.77;;;;;;;;;;4996568;28;20233;-88
2023/01/31 03:19:20;;;;;;;9.53;2.33;;;;;;;;;;5005082;28;20256;-88
2023/01/31 03:21:52;;;;;;;14.03;3.00;;;;;;;;;;5035821;28;20225;-92
2023/01/31 03:24:17;;;;;;;14.47;3.03;;;;;;;;;;4962879;28;20232;-88
2023/01/31 03:26:43;;;;;;;9.63;2.87;;;;;;;;;;4984978;28;20229;-88
2023/01/31 03:29:10;;;;;;;12.93;3.10;;;;;;;;;;4998571;28;20714;-89
2023/01/31 03:31:40;;;;;;;11.70;2.70;;;;;;;;;;4984923;28;20226;-88
2023/01/31 03:34:07;;;;;;;10.83;3.00;;;;;;;;;;4995575;28;20238;-90
2023/01/31 03:37:01;;;;;;;9.17;2.37;;;;;;;;;;4989076;28;20229;-89
2023/01/31 03:40:00;;;;;;;9.73;2.37;;;;;;;;;;5011688;28;20798;-85
2023/01/31 03:43:01;;;;;;;10.83;2.97;;;;;;;;;;5000774;28;20221;-88
2023/01/31 03:45:37;;;;;;;8.43;2.40;;;;;;;;;;5021349;28;20224;-88
2023/01/31 03:48:05;;;;;;;8.53;2.70;;;;;;;;;;5000824;28;20244;-87
2023/01/31 03:50:38;;;;;;;8.97;2.63;;;;;;;;;;4972731;28;20823;-89
2023/01/31 03:53:14;;;;;;;9.87;2.53;;;;;;;;;;4949329;28;20230;-88
2023/01/31 03:55:47;;;;;;;7.77;2.33;;;;;;;;;;5020037;28;20255;-90
2023/01/31 03:58:12;;;;;;;7.70;2.30;;;;;;;;;;5010359;28;20217;-90
2023/01/31 04:00:41;;;;;;;8.97;2.73;;;;;;;;;;5001754;28;20217;-88
2023/01/31 04:03:11;;;;;;;10.60;2.93;;;;;;;;;;4965319;28;20830;-88
2023/01/31 04:05:36;;;;;;;8.13;2.53;;;;;;;;;;4995837;28;20248;-88
2023/01/31 04:08:03;;;;;;;7.97;2.43;;;;;;;;;;5007062;28;20294;-88
2023/01/31 04:10:34;;;;;;;7.10;2.20;;;;;;;;;;4970632;28;20713;-90
2023/01/31 04:13:00;;;;;;;11.77;3.27;;;;;;;;;;4989906;28;20777;-88
2023/01/31 04:15:25;;;;;;;7.57;2.57;;;;;;;;;;5013727;28;20315;-90
2023/01/31 04:17:51;;;;;;;7.50;2.60;;;;;;;;;;4995308;28;20689;-88
2023/01/31 04:20:17;;;;;;;10.40;3.40;;;;;;;;;;4997574;28;20217;-88
2023/01/31 04:22:44;;;;;;;14.23;2.87;;;;;;;;;;4994717;28;20224;-88
2023/01/31 04:25:10;;;;;;;9.27;3.20;;;;;;;;;;4983590;28;20268;-89
2023/01/31 04:27:36;;;;;;;11.90;3.20;;;;;;;;;;4979781;28;20253;-88
2023/01/31 04:30:05;;;;;;;10.93;3.03;;;;;;;;;;4968809;28;20611;-88
2023/01/31 04:32:30;;;;;;;8.73;3.00;;;;;;;;;;4978021;28;20228;-91
2023/01/31 04:34:58;;;;;;;8.10;3.00;;;;;;;;;;4957169;28;20233;-87
2023/01/31 04:37:26;;;;;;;6.73;2.70;;;;;;;;;;4983377;28;20709;-88
2023/01/31 04:39:52;;;;;;;9.30;2.93;;;;;;;;;;4994853;28;20308;-87
2023/01/31 04:42:17;;;;;;;8.37;2.90;;;;;;;;;;4951747;28;20232;-87
2023/01/31 04:44:45;;;;;;;12.70;3.10;;;;;;;;;;4964383;28;20233;-89
2023/01/31 04:47:14;;;;;;;9.50;2.87;;;;;;;;;;4984258;28;20326;-88
2023/01/31 04:49:43;;;;;;;15.33;3.67;;;;;;;;;;4981783;28;20221;-88
2023/01/31 04:52:09;;;;;;;8.47;2.90;;;;;;;;;;4995176;28;20232;-86
2023/01/31 04:54:37;;;;;;;9.80;2.97;;;;;;;;;;4950991;28;20238;-87
2023/01/31 04:57:05;;;;;;;9.43;3.13;;;;;;;;;;4976559;28;20247;-88
2023/01/31 04:59:33;;;;;;;8.03;2.70;;;;;;;;;;4981962;28;20224;-89
2023/01/31 05:01:59;;;;;;;10.03;3.20;;;;;;;;;;4977882;28;20229;-87
2023/01/31 05:04:25;;;;;;;10.53;2.40;;;;;;;;;;4975226;28;20225;-88
2023/01/31 05:06:51;;;;;;;11.40;2.57;;;;;;;;;;4955688;28;20263;-88
2023/01/31 05:09:19;;;;;;;9.53;2.80;;;;;;;;;;4982197;28;20255;-88
2023/01/31 05:11:45;;;;;;;17.40;3.03;;;;;;;;;;4941232;28;20762;-89
2023/01/31 05:14:16;;;;;;;15.33;3.30;;;;;;;;;;4980705;28;20367;-87
2023/01/31 05:16:45;;;;;;;18.83;3.00;;;;;;;;;;4969499;28;20238;-88
2023/01/31 05:19:14;;;;;;;11.30;3.10;;;;;;;;;;4984671;28;20221;-87
2023/01/31 05:21:58;;;;;;;12.40;3.30;;;;;;;;;;4976004;28;20238;-87
2023/01/31 05:24:28;;;;;;;8.83;2.43;;;;;;;;;;4971859;28;20228;-88
2023/01/31 05:26:57;;;;;;;9.07;2.60;;;;;;;;;;4977359;28;20300;-88
2023/01/31 05:29:30;;;;;;;10.53;2.37;;;;;;;;;;4981180;28;20220;-88
2023/01/31 05:31:59;;;;;;;17.23;2.40;;;;;;;;;;4994881;28;20233;-89
2023/01/31 05:34:25;;;;;;;13.23;2.67;;;;;;;;;;4976042;28;20256;-86
2023/01/31 05:36:53;;;;;;;9.17;2.90;;;;;;;;;;4977042;28;20258;-87
2023/01/31 05:39:19;;;;;;;8.67;2.87;;;;;;;;;;4999147;28;20257;-88
2023/01/31 05:41:45;;;;;;;11.13;2.47;;;;;;;;;;4977669;28;20232;-87
2023/01/31 05:44:10;;;;;;;12.93;2.77;;;;;;;;;;4966156;28;20288;-87
2023/01/31 05:46:38;;;;;;;9.00;2.30;;;;;;;;;;4959414;28;20233;-87
2023/01/31 05:49:04;;;;;;;9.50;2.40;;;;;;;;;;4972694;28;20305;-88
2023/01/31 05:51:31;;;;;;;6.57;2.27;;;;;;;;;;4944885;28;20305;-88
2023/01/31 05:53:56;;;;;;;11.00;2.83;;;;;;;;;;4988700;28;20340;-91
2023/01/31 05:56:22;;;;;;;9.73;2.50;;;;;;;;;;4982682;28;20232;-88
2023/01/31 05:58:49;;;;;;;9.27;2.77;;;;;;;;;;5009836;28;20225;-87
2023/01/31 06:01:19;;;;;;;11.70;2.67;;;;;;;;;;4986802;28;20229;-87
2023/01/31 06:03:44;;;;;;;10.50;2.53;;;;;;;;;;4993575;28;20236;-89
2023/01/31 06:06:10;;;;;;;14.53;2.77;;;;;;;;;;4982547;28;20221;-88
2023/01/31 06:08:35;;;;;;;8.57;2.63;;;;;;;;;;4988828;28;20256;-89
2023/01/31 06:11:03;;;;;;;8.57;2.70;;;;;;;;;;4979987;28;20231;-88
2023/01/31 06:13:29;;;;;;;9.00;2.23;;;;;;;;;;4946136;28;20280;-89
2023/01/31 06:15:57;;;;;;;12.47;2.70;;;;;;;;;;4979995;28;20229;-88
2023/01/31 06:18:25;;;;;;;8.17;1.90;;;;;;;;;;4980087;28;20681;-88
2023/01/31 06:20:50;;;;;;;12.37;2.70;;;;;;;;;;4975229;28;20225;-87
2023/01/31 06:23:19;;;;;;;6.57;2.17;;;;;;;;;;4970353;28;20237;-88
2023/01/31 06:25:51;;;;;;;10.43;2.43;;;;;;;;;;4957072;28;20782;-90
2023/01/31 06:28:17;;;;;;;6.33;2.07;;;;;;;;;;4982926;28;20221;-89
2023/01/31 06:30:43;;;;;;;10.47;2.67;;;;;;;;;;4984633;28;20218;-89
2023/01/31 06:33:09;;;;;;;7.67;2.50;;;;;;;;;;4987165;28;20234;-87
2023/01/31 06:35:40;;;;;;;8.60;3.07;;;;;;;;;;4965239;28;20360;-88
2023/01/31 06:38:11;;;;;;;6.10;2.47;;;;;;;;;;4977900;28;20253;-89
2023/01/31 06:40:39;;;;;;;6.83;2.50;;;;;;;;;;4999544;28;20234;-86
2023/01/31 06:43:04;;;;;;;11.17;2.63;;;;;;;;;;4963427;28;20223;-89
2023/01/31 06:45:30;;;;;;;7.57;2.60;;;;;;;;;;4965301;28;20711;-88
2023/01/31 06:47:56;;;;;;;7.90;1.97;;;;;;;;;;4996448;28;20232;-91
2023/01/31 06:50:21;;;;;;;7.60;1.90;;;;;;;;;;4976708;28;20221;-89
2023/01/31 06:52:50;;;;;;;9.30;2.47;;;;;;;;;;4965006;28;20233;-87
2023/01/31 06:55:15;;;;;;;10.73;3.10;;;;;;;;;;4997115;28;20259;-88
2023/01/31 06:57:47;;;;;;;9.53;2.50;;;;;;;;;;5001287;28;20300;-88
2023/01/31 07:00:17;;;;;;;7.17;3.00;;;;;;;;;;4978368;28;20233;-87
2023/01/31 07:02:43;;;;;;;9.73;2.73;;;;;;;;;;4974076;28;20321;-88
2023/01/31 07:05:09;;;;;;;10.37;2.40;;;;;;;;;;4968903;28;20312;-89
2023/01/31 07:07:34;;;;;;;11.80;2.57;;;;;;;;;;4965178;28;20225;-88
2023/01/31 07:10:00;;;;;;;8.60;2.47;;;;;;;;;;4946218;28;20239;-89
2023/01/31 07:12:26;;;;;;;8.03;2.50;;;;;;;;;;4964230;28;20690;-87
2023/01/31 07:14:51;;;;;;;10.47;2.53;;;;;;;;;;4991074;28;20236;-88
2023/01/31 07:17:19;;;;;;;12.50;2.40;;;;;;;;;;4999568;28;20288;-89
2023/01/31 07:19:46;;;;;;;5.57;2.27;;;;;;;;;;4950887;28;20308;-88
2023/01/31 07:22:11;;;;;;;11.07;2.57;;;;;;;;;;4967752;28;20213;-88
2023/01/31 07:24:39;;;;;;;8.93;2.30;;;;;;;;;;4987305;28;20300;-92
2023/01/31 07:27:05;;;;;;;7.17;2.27;;;;;;;;;;4997830;28;20253;-88
2023/01/31 07:29:33;;;;;;;9.60;2.70;;;;;;;;;;4986492;28;20307;-88
2023/01/31 07:31:58;;;;;;;7.60;2.50;;;;;;;;;;4991984;28;20976;-87
2023/01/31 07:34:24;;;;;;;13.23;2.77;;;;;;;;;;4984309;28;20225;-87
2023/01/31 07:36:53;;;;;;;8.23;2.97;;;;;;;;;;4964149;28;20228;-89
2023/01/31 07:39:18;;;;;;;8.63;3.00;;;;;;;;;;4947890;28;20272;-87
2023/01/31 07:41:46;;;;;;;11.77;3.60;;;;;;;;;;4958007;28;20229;-87
2023/01/31 07:44:17;;;;;;;8.23;3.23;;;;;;;;;;4984468;28;20248;-89
2023/01/31 07:46:43;;;;;;;10.27;3.60;;;;;;;;;;4995683;28;20230;-88
2023/01/31 07:49:08;;;;;;;8.87;3.10;;;;;;;;;;4975389;28;20274;-87
2023/01/31 07:51:34;;;;;;;13.67;3.33;;;;;;;;;;4998953;28;20264;-87
2023/01/31 07:54:02;;;;;;;8.83;3.40;;;;;;;;;;4943813;28;20731;-88
2023/01/31 07:56:28;;;;;;;9.10;3.70;;;;;;;;;;4946878;28;20275;-87
2023/01/31 07:58:54;;;;;;;10.00;4.00;;;;;;;;;;4959196;28;20683;-87
2023/01/31 08:04:05;;;;;;;10.60;4.03;;;;;;;;;;5005042;28;20223;-89
2023/01/31 08:06:31;;;;;;;15.27;4.83;;;;;;;;;;4987045;28;20299;-87
2023/01/31 08:08:57;;;;;;;11.43;4.33;;;;;;;;;;4979111;28;20234;-88
2023/01/31 08:11:25;;;;;;;13.90;4.47;;;;;;;;;;4963021;28;20308;-88
2023/01/31 08:13:50;;;;;;;9.50;3.87;;;;;;;;;;4979552;28;20232;-85
2023/01/31 08:16:19;;;;;;;8.53;3.60;;;;;;;;;;5001630;28;20212;-87
2023/01/31 08:18:48;;;;;;;10.57;4.27;;;;;;;;;;4999989;28;20229;-85
2023/01/31 08:21:16;;;;;;;9.83;3.40;;;;;;;;;;4959604;28;20236;-87
2023/01/31 08:23:42;;;;;;;7.80;3.40;;;;;;;;;;4962731;28;20236;-87
2023/01/31 08:26:15;;;;;;;14.63;4.30;;;;;;;;;;4983658;28;20225;-87
2023/01/31 08:28:40;;;;;;;8.97;3.90;;;;;;;;;;4967356;28;20225;-88
2023/01/31 08:31:06;;;;;;;10.77;4.00;;;;;;;;;;4983622;28;20232;-88
2023/01/31 08:33:34;;;;;;;12.07;5.33;;;;;;;;;;5006050;28;20725;-87
2023/01/31 08:36:17;;;;;;;8.87;4.10;;;;;;;;;;4988556;28;20320;-87
2023/01/31 08:38:43;;;;;;;10.40;4.40;;;;;;;;;;4976199;28;20312;-88
2023/01/31 08:41:15;;;;;;;14.27;4.83;;;;;;;;;;4986783;28;20221;-88
2023/01/31 08:43:41;;;;;;;8.17;4.43;;;;;;;;;;4964362;28;20230;-87
2023/01/31 08:46:07;;;;;;;17.80;5.47;;;;;;;;;;5021260;28;20674;-89
2023/01/31 08:48:34;;;;;;;12.23;4.77;;;;;;;;;;4982865;28;20233;-87
2023/01/31 08:51:05;;;;;;;10.53;5.10;;;;;;;;;;4977328;28;20612;-88
2023/01/31 08:53:34;;;;;;;10.10;4.63;;;;;;;;;;4998523;28;20249;-87
2023/01/31 08:56:04;;;;;;;16.73;6.10;;;;;;;;;;4984283;28;20228;-87
2023/01/31 08:58:33;;;;;;;13.40;6.10;;;;;;;;;;4962578;28;20233;-88
2023/01/31 09:01:20;;;;;;;15.37;6.43;;;;;;;;;;4955296;28;20225;-86
2023/01/31 09:03:49;;;;;;;12.10;5.60;;;;;;;;;;4973690;28;20237;-86
2023/01/31 09:06:19;;;;;;;13.00;6.07;;;;;;;;;;4973374;28;20253;-86
2023/01/31 09:08:47;;;;;;;9.57;5.43;;;;;;;;;;4972161;28;20222;-88
2023/01/31 09:11:17;;;;;;;15.23;4.87;;;;;;;;;;4983971;28;20252;-87
2023/01/31 09:13:44;;;;;;;20.40;5.93;;;;;;;;;;4964073;28;20272;-87
2023/01/31 09:16:10;;;;;;;10.67;6.33;;;;;;;;;;4978117;28;20225;-87
2023/01/31 09:18:37;;;;;;;11.87;6.80;;;;;;;;;;4941490;28;20287;-88
2023/01/31 09:21:06;;;;;;;12.73;7.27;;;;;;;;;;4938917;28;20248;-87
2023/01/31 09:23:32;;;;;;;16.23;7.87;;;;;;;;;;4980486;28;20236;-88
2023/01/31 09:26:00;;;;;;;17.07;8.80;;;;;;;;;;4977716;28;20296;-86
2023/01/31 09:28:26;;;;;;;12.27;6.30;;;;;;;;;;5002341;28;20225;-88
2023/01/31 09:30:54;;;;;;;13.33;6.10;;;;;;;;;;4960603;28;20225;-85
2023/01/31 09:33:21;;;;;;;11.37;7.43;;;;;;;;;;4986195;28;20253;-88
2023/01/31 09:36:12;;;;;;;16.10;6.70;;;;;;;;;;4980701;28;20275;-86
2023/01/31 09:38:37;;;;;;;10.63;5.57;;;;;;;;;;5001360;28;20225;-86
2023/01/31 09:41:06;;;;;;;12.00;7.13;;;;;;;;;;4967048;28;20243;-88
2023/01/31 09:43:40;;;;;;;12.47;6.63;;;;;;;;;;4995547;28;20237;-89
2023/01/31 09:46:09;;;;;;;14.20;6.33;;;;;;;;;;4982154;28;20220;-88
2023/01/31 09:48:37;;;;;;;10.73;6.60;;;;;;;;;;4971729;28;20233;-88
2023/01/31 09:51:03;;;;;;;9.60;6.20;;;;;;;;;;4991382;28;20236;-86
2023/01/31 09:53:34;;;;;;;10.37;6.20;;;;;;;;;;4940893;28;20234;-87
2023/01/31 09:56:02;;;;;;;9.53;6.40;;;;;;;;;;4967432;28;20340;-88
2023/01/31 09:58:31;;;;;;;9.33;6.13;;;;;;;;;;5016747;28;20233;-88
2023/01/31 10:01:12;;;;;;;11.77;6.73;;;;;;;;;;5000608;28;20236;-90
2023/01/31 10:03:56;;;;;;;10.77;7.20;;;;;;;;;;5019378;28;20224;-91
2023/01/31 10:06:27;;;;;;;11.20;7.17;;;;;;;;;;5010730;28;20200;-87
2023/01/31 10:09:06;;;;;;;13.80;7.53;;;;;;;;;;4967469;28;20225;-88
2023/01/31 10:11:51;;;;;;;8.77;7.27;;;;;;;;;;4966613;28;20252;-87
2023/01/31 10:14:34;;;;;;;11.70;7.20;;;;;;;;;;4991476;28;20225;-87
2023/01/31 10:17:14;;;;;;;9.60;7.13;;;;;;;;;;4995543;28;20265;-89
2023/01/31 10:19:49;;;;;;;16.07;8.57;;;;;;;;;;4963596;28;20225;-89
2023/01/31 10:22:33;;;;;;;11.07;9.07;;;;;;;;;;5008041;28;20229;-88
2023/01/31 10:25:16;;;;;;;12.30;8.00;;;;;;;;;;4981937;28;20279;-86
2023/01/31 10:27:55;;;;;;;14.60;10.27;;;;;;;;;;4957262;28;20236;-85
2023/01/31 10:30:26;;;;;;;14.57;9.23;;;;;;;;;;4967248;28;20217;-87
2023/01/31 10:32:58;;;;;;;10.27;8.43;;;;;;;;;;4984046;28;20244;-87
2023/01/31 10:35:33;;;;;;;16.13;9.80;;;;;;;;;;4993107;28;20229;-87
2023/01/31 10:38:03;;;;;;;16.43;10.73;;;;;;;;;;4991763;28;20243;-88
2023/01/31 10:40:36;;;;;;;16.63;10.07;;;;;;;;;;4980201;28;20225;-88
2023/01/31 10:43:07;;;;;;;15.23;9.57;;;;;;;;;;4972866;28;20228;-88
2023/01/31 10:45:37;;;;;;;18.53;10.80;;;;;;;;;;5010429;28;20220;-87
2023/01/31 10:48:14;;;;;;;17.13;9.83;;;;;;;;;;4951674;28;20209;-88
2023/01/31 10:50:55;;;;;;;13.27;8.97;;;;;;;;;;4978556;28;20224;-88
2023/01/31 10:53:43;;;;;;;15.90;10.30;;;;;;;;;;5000172;28;20286;-88
2023/01/31 10:56:23;;;;;;;15.37;9.90;;;;;;;;;;5015960;28;20216;-86
2023/01/31 10:58:48;;;;;;;12.03;9.70;;;;;;;;;;4989685;28;20232;-89
2023/01/31 11:01:14;;;;;;;14.33;10.33;;;;;;;;;;4966733;28;20217;-86
2023/01/31 11:03:52;;;;;;;13.97;10.70;;;;;;;;;;4949858;28;20213;-88
2023/01/31 11:06:21;;;;;;;13.63;9.63;;;;;;;;;;4984390;28;20217;-89
2023/01/31 11:08:46;;;;;;;13.90;11.03;;;;;;;;;;4988297;28;20262;-87
2023/01/31 11:11:15;;;;;;;17.90;11.10;;;;;;;;;;4998997;28;20229;-88
2023/01/31 11:13:54;;;;;;;15.00;10.67;;;;;;;;;;4984265;28;20226;-88
2023/01/31 11:16:21;;;;;;;16.30;10.87;;;;;;;;;;4950174;28;20213;-87
2023/01/31 11:18:49;;;;;;;12.93;10.10;;;;;;;;;;4987065;28;20225;-89
2023/01/31 11:21:22;;;;;;;13.57;10.17;;;;;;;;;;4989323;28;20222;-86
2023/01/31 11:23:51;;;;;;;17.70;11.00;;;;;;;;;;4964967;28;20221;-88
2023/01/31 11:26:38;;;;;;;13.50;10.43;;;;;;;;;;4984910;28;20225;-87
2023/01/31 11:31:56;;;;;;;13.20;10.97;;;;;;;;;;4949089;28;20242;-78
2023/01/31 11:34:26;;;;;;;14.23;10.70;;;;;;;;;;4936218;28;20235;-79
2023/01/31 11:36:51;;;;;;;12.97;9.93;;;;;;;;;;4936270;29;20240;-77
2023/01/31 11:39:25;;;;;;;15.70;10.40;;;;;;;;;;4962233;28;20227;-78
2023/01/31 11:41:51;;;;;;;13.17;10.50;;;;;;;;;;4926467;29;20235;-79
2023/01/31 11:44:20;;;;;;;15.43;10.70;;;;;;;;;;4925152;28;20271;-77
2023/01/31 11:47:03;;;;;;;13.27;10.47;;;;;;;;;;4954776;28;20236;-78
2023/01/31 11:49:38;;;;;;;13.47;10.80;;;;;;;;;;4932800;28;20232;-77
2023/01/31 11:52:27;;;;;;;12.47;9.90;;;;;;;;;;4934872;28;20219;-79
2023/01/31 11:54:54;;;;;;;14.00;10.80;;;;;;;;;;4921047;29;20225;-78
2023/01/31 11:57:24;;;;;;;13.93;10.80;;;;;;;;;;4935061;28;20224;-79
2023/01/31 11:59:56;;;;;;;12.07;10.30;;;;;;;;;;4936193;28;20222;-79
2023/01/31 12:02:59;;;;;;;14.03;10.97;;;;;;;;;;4914092;28;20230;-77
2023/01/31 12:05:35;;;;;;;15.33;10.90;;;;;;;;;;4949382;28;20475;-75
2023/01/31 12:08:01;;;;;;;11.30;10.10;;;;;;;;;;4937565;29;20226;-78
2023/01/31 12:10:46;;;;;;;12.43;10.20;;;;;;;;;;4906380;29;20692;-78
2023/01/31 12:13:16;;;;;;;17.87;10.40;;;;;;;;;;4938034;28;20223;-78
2023/01/31 12:15:51;;;;;;;11.10;9.80;;;;;;;;;;4933726;28;20236;-77
2023/01/31 12:18:39;;;;;;;12.00;9.50;;;;;;;;;;4926749;28;20223;-78
2023/01/31 12:21:14;;;;;;;12.53;9.60;;;;;;;;;;4938935;28;20215;-76
2023/01/31 12:23:40;;;;;;;12.67;9.47;;;;;;;;;;4926307;29;20231;-76
2023/01/31 12:26:14;;;;;;;10.10;9.10;;;;;;;;;;4936092;28;20662;-79
2023/01/31 12:29:07;;;;;;;11.10;9.40;;;;;;;;;;4925009;29;20235;-76
2023/01/31 12:32:04;;;;;;;12.33;9.20;;;;;;;;;;4936968;29;20236;-77
2023/01/31 12:34:43;;;;;;;9.43;8.43;;;;;;;;;;4935135;28;20242;-78
2023/01/31 12:37:27;;;;;;;10.53;8.87;;;;;;;;;;4924767;28;20274;-77
2023/01/31 12:40:01;;;;;;;9.20;8.30;;;;;;;;;;4934033;28;20219;-76
2023/01/31 12:42:30;;;;;;;15.60;8.37;;;;;;;;;;4939781;28;20219;-77
2023/01/31 12:45:22;;;;;;;9.00;8.10;;;;;;;;;;4937739;28;20238;-76
2023/01/31 12:48:06;;;;;;;8.00;7.33;;;;;;;;;;4924491;29;20240;-77
2023/01/31 12:50:41;;;;;;;8.73;7.83;;;;;;;;;;4949764;28;20607;-78
2023/01/31 12:53:33;;;;;;;9.13;7.77;;;;;;;;;;4938696;28;20223;-78
2023/01/31 12:56:13;;;;;;;7.60;6.80;;;;;;;;;;4934023;28;20823;-77
2023/01/31 12:59:01;;;;;;;7.87;7.00;;;;;;;;;;4910228;29;20279;-79
2023/01/31 13:01:47;;;;;;;7.83;7.13;;;;;;;;;;4948591;28;20223;-78
2023/01/31 13:04:31;;;;;;;7.27;6.57;;;;;;;;;;4933161;28;20227;-80
2023/01/31 13:07:03;;;;;;;8.37;7.57;;;;;;;;;;4950587;28;20286;-80
2023/01/31 13:09:32;;;;;;;8.63;7.57;;;;;;;;;;4926825;28;20226;-77
2023/01/31 13:12:10;;;;;;;8.87;7.77;;;;;;;;;;4907595;29;20711;-75
2023/01/31 13:14:44;;;;;;;6.40;5.80;;;;;;;;;;4923884;29;20251;-78
2023/01/31 13:17:13;;;;;;;7.93;6.40;;;;;;;;;;4921118;28;20223;-77
2023/01/31 13:19:44;;;;;;;7.40;6.80;;;;;;;;;;4910417;29;20763;-78
2023/01/31 13:22:26;;;;;;;6.57;5.97;;;;;;;;;;4935466;28;20283;-76
2023/01/31 13:25:21;;;;;;;8.83;6.70;;;;;;;;;;4951071;28;20253;-77
2023/01/31 13:28:01;;;;;;;10.07;7.10;;;;;;;;;;4897136;29;20231;-76
2023/01/31 13:30:48;;;;;;;7.80;6.83;;;;;;;;;;4923301;28;20778;-74
2023/01/31 13:33:16;;;;;;;8.57;6.30;;;;;;;;;;4945517;23;20222;-79
2023/01/31 13:35:44;;;;;;;6.47;5.97;;;;;;;;;;4953164;28;20237;-81
2023/01/31 13:38:16;;;;;;;7.33;6.63;;;;;;;;;;4954794;28;20218;-78
2023/01/31 13:40:53;;;;;;;7.37;6.00;;;;;;;;;;4939207;28;20297;-81
2023/01/31 13:43:19;;;;;;;7.57;6.97;;;;;;;;;;4954607;28;20738;-79
2023/01/31 13:46:01;;;;;;;6.93;6.27;;;;;;;;;;4939452;28;20222;-80
2023/01/31 13:48:38;;;;;;;7.13;5.80;;;;;;;;;;4954842;28;20600;-79
2023/01/31 13:51:19;;;;;;;7.03;6.53;;;;;;;;;;4951132;28;20223;-81
2023/01/31 13:54:19;;;;;;;7.27;6.47;;;;;;;;;;4946290;28;20250;-79
2023/01/31 13:56:48;;;;;;;7.57;6.67;;;;;;;;;;4925089;29;20223;-82
2023/01/31 13:59:18;;;;;;;8.00;6.53;;;;;;;;;;4923755;28;20595;-80
2023/01/31 14:01:47;;;;;;;6.60;6.00;;;;;;;;;;4935120;28;20253;-82
2023/01/31 14:04:13;;;;;;;6.80;6.13;;;;;;;;;;4948614;28;20279;-79
2023/01/31 14:06:57;;;;;;;8.13;6.63;;;;;;;;;;4968087;28;20238;-78
2023/01/31 14:10:04;;;;;;;11.87;6.93;;;;;;;;;;4966749;28;20289;-80
2023/01/31 14:12:32;;;;;;;6.50;5.80;;;;;;;;;;4953113;28;20234;-81
2023/01/31 14:14:57;;;;;;;8.27;6.33;;;;;;;;;;4968715;28;20250;-80
2023/01/31 14:17:26;;;;;;;7.23;6.53;;;;;;;;;;4918096;29;20223;-79
2023/01/31 14:19:51;;;;;;;7.67;6.97;;;;;;;;;;4951490;28;20293;-80
2023/01/31 14:22:20;;;;;;;6.70;6.20;;;;;;;;;;4953539;28;20230;-83
2023/01/31 14:24:52;;;;;;;6.23;5.73;;;;;;;;;;4967741;28;20246;-82
2023/01/31 14:27:54;;;;;;;7.27;5.50;;;;;;;;;;4930930;29;20286;-80
2023/01/31 14:30:41;;;;;;;5.80;5.20;;;;;;;;;;4971440;28;20225;-78
2023/01/31 14:37:45;;;;;;;;;;;;;;;;;;;;;
2023/01/31 14:40:47;;;;;;;5.10;4.70;;;;;;;;;;4939111;28;20290;-81
2023/01/31 14:43:26;;;;;;;6.83;6.13;;;;;;;;;;4927239;28;20230;-84
2023/01/31 14:46:11;;;;;;;6.40;5.90;;;;;;;;;;4955161;28;20222;-83
2023/01/31 14:49:10;;;;;;;8.07;7.37;;;;;;;;;;4951548;28;20326;-84
2023/01/31 14:52:00;;;;;;;13.17;11.03;;;;;;;;;;4977982;28;20695;-84
2023/01/31 14:54:57;;;;;;;8.93;8.17;;;;;;;;;;4968793;23;20269;-85
2023/01/31 14:57:27;;;;;;;10.40;9.30;;;;;;;;;;4976592;28;20230;-83
2023/01/31 15:00:05;;;;;;;15.27;12.17;;;;;;;;;;4976926;28;20218;-83
2023/01/31 15:02:31;;;;;;;5.83;5.33;;;;;;;;;;4977814;28;20240;-83
2023/01/31 15:04:59;;;;;;;7.63;6.93;;;;;;;;;;4983678;28;20226;-82
2023/01/31 15:07:24;;;;;;;7.40;6.67;;;;;;;;;;4975279;28;20262;-84
2023/01/31 15:09:55;;;;;;;7.17;6.47;;;;;;;;;;4959705;28;20233;-83
2023/01/31 15:12:52;;;;;;;7.00;6.33;;;;;;;;;;4953456;28;20234;-84
2023/01/31 15:15:33;;;;;;;7.20;6.50;;;;;;;;;;4977610;28;20285;-81
2023/01/31 15:18:03;;;;;;;7.10;6.50;;;;;;;;;;4968127;28;20265;-82
2023/01/31 15:20:42;;;;;;;5.53;5.13;;;;;;;;;;4957352;28;20234;-84
2023/01/31 15:23:15;;;;;;;6.67;6.07;;;;;;;;;;4945362;28;20305;-81